Time;durP1;ratioP1;P1;durP2;ratioP2;P2;SDS_P1;SDS_P2;PMS_P1;PMS_P2;Temp;Humidity;BMP_temperature;BMP_pressure;BME280_temperature;BME280_humidity;BME280_pressure;Samples;Min_cycle;Max_cycle;Signal;HPM_P1;HPM_P2
2023/08/30 00:01:44;;;;;;;11.52;3.50;;;;;;;;;;5023443;28;20056;-62
2023/08/30 00:04:10;;;;;;;7.53;3.67;;;;;;;;;;5033940;28;20053;-62
2023/08/30 00:06:37;;;;;;;8.70;3.15;;;;;;;;;;5033675;28;20053;-62
2023/08/30 00:09:04;;;;;;;6.93;3.63;;;;;;;;;;5032888;28;20076;-63
2023/08/30 00:11:32;;;;;;;8.02;3.55;;;;;;;;;;5021621;28;20140;-63
2023/08/30 00:14:05;;;;;;;8.20;3.67;;;;;;;;;;5020915;28;20057;-60
2023/08/30 00:16:33;;;;;;;8.35;3.90;;;;;;;;;;5018745;28;20080;-60
2023/08/30 00:19:00;;;;;;;6.28;3.13;;;;;;;;;;5020146;28;20053;-60
2023/08/30 00:21:28;;;;;;;6.32;3.33;;;;;;;;;;5007192;28;20057;-60
2023/08/30 00:23:54;;;;;;;9.20;3.92;;;;;;;;;;5018929;28;20061;-64
2023/08/30 00:26:21;;;;;;;7.80;3.40;;;;;;;;;;5018379;28;20130;-61
2023/08/30 00:28:49;;;;;;;8.63;3.28;;;;;;;;;;5019649;28;20067;-61
2023/08/30 00:31:16;;;;;;;8.35;3.20;;;;;;;;;;5011777;28;20104;-63
2023/08/30 00:33:42;;;;;;;9.90;3.78;;;;;;;;;;5016806;28;20157;-61
2023/08/30 00:36:09;;;;;;;8.02;3.45;;;;;;;;;;5018055;28;20148;-61
2023/08/30 00:38:36;;;;;;;7.22;3.50;;;;;;;;;;5019957;28;20081;-60
2023/08/30 00:41:02;;;;;;;7.78;3.40;;;;;;;;;;5006262;28;20053;-60
2023/08/30 00:43:29;;;;;;;7.53;3.40;;;;;;;;;;5002373;28;20055;-60
2023/08/30 00:45:58;;;;;;;9.07;3.70;;;;;;;;;;5019089;28;20055;-61
2023/08/30 00:48:24;;;;;;;;;;;;;;;;;;5020416;28;20092;-62
2023/08/30 00:50:51;;;;;;;6.20;3.15;;;;;;;;;;5017527;28;20171;-61
2023/08/30 00:53:18;;;;;;;9.38;3.58;;;;;;;;;;5008853;28;20057;-62
2023/08/30 00:55:45;;;;;;;7.10;3.20;;;;;;;;;;5017786;28;20241;-61
2023/08/30 00:58:12;;;;;;;7.35;3.28;;;;;;;;;;5018842;28;20049;-60
2023/08/30 01:00:39;;;;;;;6.38;3.25;;;;;;;;;;5020161;28;20112;-61
2023/08/30 01:03:08;;;;;;;8.18;3.67;;;;;;;;;;5016142;28;20046;-60
2023/08/30 01:05:35;;;;;;;8.93;3.78;;;;;;;;;;5012867;28;20053;-62
2023/08/30 01:08:02;;;;;;;10.15;3.28;;;;;;;;;;5018699;28;20144;-61
2023/08/30 01:10:45;;;;;;;7.50;3.78;;;;;;;;;;5019379;28;20128;-61
2023/08/30 01:13:17;;;;;;;7.45;3.45;;;;;;;;;;5012838;28;20176;-61
2023/08/30 01:15:48;;;;;;;9.93;3.60;;;;;;;;;;5012123;28;20061;-63
2023/08/30 01:18:19;;;;;;;7.63;3.78;;;;;;;;;;5017960;28;20077;-60
2023/08/30 01:20:47;;;;;;;9.35;3.92;;;;;;;;;;5015115;28;20057;-61
2023/08/30 01:23:23;;;;;;;8.05;3.88;;;;;;;;;;5010984;28;20053;-61
2023/08/30 01:25:58;;;;;;;11.30;4.07;;;;;;;;;;5019473;28;20061;-61
2023/08/30 01:28:30;;;;;;;8.80;4.05;;;;;;;;;;5018758;28;20073;-61
2023/08/30 01:30:58;;;;;;;10.35;3.80;;;;;;;;;;5013971;28;20072;-60
2023/08/30 01:33:27;;;;;;;9.73;4.55;;;;;;;;;;5011223;28;20053;-62
2023/08/30 01:35:55;;;;;;;10.27;4.22;;;;;;;;;;5018055;28;20056;-62
2023/08/30 01:38:23;;;;;;;;;;;;;;;;;;5020729;28;20061;-62
2023/08/30 01:40:51;;;;;;;7.68;3.95;;;;;;;;;;5018611;28;19936;-60
2023/08/30 01:43:19;;;;;;;10.80;4.65;;;;;;;;;;5010164;28;20064;-61
2023/08/30 01:45:47;;;;;;;8.68;4.32;;;;;;;;;;5010632;28;20148;-60
2023/08/30 01:48:17;;;;;;;10.23;4.75;;;;;;;;;;5019391;28;20081;-61
2023/08/30 01:50:45;;;;;;;9.93;4.80;;;;;;;;;;5017371;28;20049;-62
2023/08/30 01:53:13;;;;;;;9.10;4.63;;;;;;;;;;5010563;28;20064;-62
2023/08/30 01:55:41;;;;;;;8.65;5.07;;;;;;;;;;5014550;28;20057;-60
2023/08/30 01:58:08;;;;;;;17.38;4.70;;;;;;;;;;5016799;28;20071;-62
2023/08/30 02:00:35;;;;;;;14.20;4.80;;;;;;;;;;5017416;28;20067;-61
2023/08/30 02:03:09;;;;;;;10.50;4.85;;;;;;;;;;5000772;28;20118;-62
2023/08/30 02:05:40;;;;;;;9.18;4.43;;;;;;;;;;4983214;28;20081;-63
2023/08/30 02:08:14;;;;;;;11.35;5.05;;;;;;;;;;4997810;28;20045;-63
2023/08/30 02:10:45;;;;;;;13.35;4.90;;;;;;;;;;5010054;28;20058;-63
2023/08/30 02:13:12;;;;;;;10.98;4.65;;;;;;;;;;5005296;28;20071;-61
2023/08/30 02:15:42;;;;;;;8.32;4.47;;;;;;;;;;5004435;28;20072;-62
2023/08/30 02:18:10;;;;;;;10.82;4.95;;;;;;;;;;5016878;28;20088;-62
2023/08/30 02:20:37;;;;;;;;;;;;;;;;;;5018603;28;20062;-61
2023/08/30 02:23:04;;;;;;;12.32;4.88;;;;;;;;;;5017625;28;19932;-61
2023/08/30 02:25:31;;;;;;;12.45;5.70;;;;;;;;;;5011643;28;20126;-62
2023/08/30 02:27:57;;;;;;;13.05;5.53;;;;;;;;;;5006352;28;20046;-62
2023/08/30 02:30:24;;;;;;;10.45;5.00;;;;;;;;;;5001894;28;20029;-62
2023/08/30 02:32:51;;;;;;;12.02;5.88;;;;;;;;;;5019410;28;20216;-62
2023/08/30 02:35:19;;;;;;;10.45;5.13;;;;;;;;;;4989972;28;20212;-62
2023/08/30 02:37:46;;;;;;;8.95;4.78;;;;;;;;;;5013740;28;20052;-62
2023/08/30 02:40:13;;;;;;;14.68;4.93;;;;;;;;;;5012373;28;20053;-64
2023/08/30 02:42:39;;;;;;;11.45;5.13;;;;;;;;;;5017629;28;20145;-62
2023/08/30 02:45:07;;;;;;;13.00;5.70;;;;;;;;;;4980023;28;20119;-62
2023/08/30 02:47:34;;;;;;;10.40;5.33;;;;;;;;;;4998462;28;20050;-62
2023/08/30 02:50:00;;;;;;;10.05;4.50;;;;;;;;;;4999822;28;20046;-63
2023/08/30 02:52:28;;;;;;;11.68;5.03;;;;;;;;;;4994147;28;20255;-63
2023/08/30 02:54:55;;;;;;;11.93;4.63;;;;;;;;;;4996195;28;20085;-64
2023/08/30 02:57:24;;;;;;;11.05;5.22;;;;;;;;;;5018756;28;20103;-63
2023/08/30 02:59:51;;;;;;;11.90;4.95;;;;;;;;;;5017401;28;20089;-63
2023/08/30 03:02:17;;;;;;;12.52;5.13;;;;;;;;;;5009745;28;20076;-62
2023/08/30 03:04:44;;;;;;;10.48;5.03;;;;;;;;;;5001519;28;20119;-63
2023/08/30 03:07:11;;;;;;;10.63;4.93;;;;;;;;;;5024300;28;20077;-62
2023/08/30 03:09:40;;;;;;;12.00;5.43;;;;;;;;;;5016325;28;20068;-60
2023/08/30 03:12:07;;;;;;;13.13;4.75;;;;;;;;;;5016864;28;20140;-62
2023/08/30 03:14:34;;;;;;;12.52;4.97;;;;;;;;;;5006747;28;20075;-61
2023/08/30 03:17:01;;;;;;;10.80;4.93;;;;;;;;;;5019803;28;20186;-61
2023/08/30 03:19:27;;;;;;;10.57;5.25;;;;;;;;;;5026327;28;20069;-62
2023/08/30 03:21:54;;;;;;;11.27;4.78;;;;;;;;;;5013534;28;20054;-62
2023/08/30 03:24:21;;;;;;;10.82;5.05;;;;;;;;;;4989970;28;20056;-61
2023/08/30 03:26:49;;;;;;;12.63;6.20;;;;;;;;;;5016660;28;20049;-62
2023/08/30 03:29:16;;;;;;;12.30;5.80;;;;;;;;;;5016362;28;20057;-61
2023/08/30 03:31:43;;;;;;;12.90;5.65;;;;;;;;;;5017052;28;20075;-61
2023/08/30 03:34:10;;;;;;;11.05;5.43;;;;;;;;;;5008439;28;20104;-62
2023/08/30 03:36:39;;;;;;;14.10;5.55;;;;;;;;;;5012373;28;20161;-62
2023/08/30 03:39:06;;;;;;;16.10;5.60;;;;;;;;;;5017997;28;20060;-62
2023/08/30 03:41:33;;;;;;;14.45;5.45;;;;;;;;;;5012603;28;20041;-62
2023/08/30 03:44:01;;;;;;;11.27;4.95;;;;;;;;;;5013043;28;20057;-62
2023/08/30 03:46:28;;;;;;;16.42;6.20;;;;;;;;;;5011219;28;20072;-62
2023/08/30 03:48:56;;;;;;;12.68;5.82;;;;;;;;;;5017604;28;20127;-62
2023/08/30 03:51:23;;;;;;;12.43;5.82;;;;;;;;;;5020459;28;20067;-62
2023/08/30 03:53:56;;;;;;;13.75;6.18;;;;;;;;;;5016333;28;20054;-62
2023/08/30 03:56:25;;;;;;;17.38;6.07;;;;;;;;;;5016464;28;20076;-61
2023/08/30 03:58:51;;;;;;;14.88;6.15;;;;;;;;;;5019806;28;20049;-62
2023/08/30 04:01:19;;;;;;;13.55;5.82;;;;;;;;;;5019271;28;20152;-61
2023/08/30 04:03:46;;;;;;;13.65;6.38;;;;;;;;;;5016862;28;20084;-62
2023/08/30 04:06:13;;;;;;;12.35;5.75;;;;;;;;;;5016440;28;20045;-62
2023/08/30 04:08:39;;;;;;;10.10;5.60;;;;;;;;;;5020131;28;20060;-60
2023/08/30 04:11:06;;;;;;;15.45;5.80;;;;;;;;;;5014105;28;20073;-61
2023/08/30 04:13:34;;;;;;;13.40;5.68;;;;;;;;;;5016455;28;20064;-62
2023/08/30 04:16:01;;;;;;;13.88;5.25;;;;;;;;;;5017367;28;20085;-62
2023/08/30 04:18:29;;;;;;;12.80;4.90;;;;;;;;;;5003557;28;20391;-60
2023/08/30 04:20:58;;;;;;;14.02;5.15;;;;;;;;;;5022509;28;20052;-63
2023/08/30 04:23:24;;;;;;;11.63;5.25;;;;;;;;;;5019738;28;20069;-64
2023/08/30 04:25:51;;;;;;;9.40;4.78;;;;;;;;;;5015227;28;20041;-64
2023/08/30 04:28:19;;;;;;;13.43;5.13;;;;;;;;;;5018158;28;20073;-62
2023/08/30 04:30:45;;;;;;;14.25;5.10;;;;;;;;;;5001279;28;20132;-64
2023/08/30 04:33:12;;;;;;;12.43;5.22;;;;;;;;;;5020238;28;20115;-62
2023/08/30 04:35:40;;;;;;;10.60;5.18;;;;;;;;;;5008440;28;20132;-63
2023/08/30 04:38:07;;;;;;;14.05;5.28;;;;;;;;;;5023165;28;20068;-63
2023/08/30 04:40:34;;;;;;;10.75;4.75;;;;;;;;;;5014550;28;20065;-62
2023/08/30 04:43:01;;;;;;;10.98;5.13;;;;;;;;;;5018716;28;20041;-63
2023/08/30 04:45:29;;;;;;;9.40;4.57;;;;;;;;;;5015095;28;20050;-63
2023/08/30 04:47:56;;;;;;;18.33;5.30;;;;;;;;;;5019875;28;20114;-63
2023/08/30 04:50:22;;;;;;;10.50;4.75;;;;;;;;;;5013629;28;20085;-64
2023/08/30 04:52:50;;;;;;;12.48;5.82;;;;;;;;;;5020779;28;20088;-63
2023/08/30 04:55:17;;;;;;;11.68;5.10;;;;;;;;;;5015943;28;20132;-64
2023/08/30 04:57:52;;;;;;;14.77;6.57;;;;;;;;;;5033739;28;20065;-62
2023/08/30 05:00:20;;;;;;;12.32;5.63;;;;;;;;;;5010425;28;20041;-63
2023/08/30 05:02:47;;;;;;;11.60;5.28;;;;;;;;;;5015167;28;20114;-62
2023/08/30 05:05:14;;;;;;;10.95;5.65;;;;;;;;;;5013607;28;20052;-63
2023/08/30 05:07:41;;;;;;;12.90;5.28;;;;;;;;;;5019152;28;20048;-63
2023/08/30 05:10:13;;;;;;;14.68;5.72;;;;;;;;;;5018302;28;20061;-64
2023/08/30 05:12:42;;;;;;;10.50;5.05;;;;;;;;;;5015598;28;20049;-64
2023/08/30 05:15:10;;;;;;;10.05;4.78;;;;;;;;;;5014433;28;20056;-63
2023/08/30 05:17:36;;;;;;;15.35;5.53;;;;;;;;;;5021395;28;20068;-63
2023/08/30 05:20:08;;;;;;;11.50;5.30;;;;;;;;;;5018864;28;20080;-63
2023/08/30 05:22:35;;;;;;;13.57;4.88;;;;;;;;;;5017499;28;20069;-62
2023/08/30 05:25:02;;;;;;;11.25;5.22;;;;;;;;;;5014181;28;20048;-62
2023/08/30 05:27:31;;;;;;;13.77;5.68;;;;;;;;;;5019898;28;20053;-62
2023/08/30 05:29:57;;;;;;;12.85;5.32;;;;;;;;;;5016898;28;20061;-63
2023/08/30 05:32:24;;;;;;;11.45;5.18;;;;;;;;;;5016992;28;20045;-63
2023/08/30 05:34:51;;;;;;;11.77;5.13;;;;;;;;;;5013329;28;20135;-63
2023/08/30 05:37:17;;;;;;;10.98;5.50;;;;;;;;;;5019430;28;20045;-62
2023/08/30 05:39:44;;;;;;;11.90;4.78;;;;;;;;;;5018239;28;20062;-63
2023/08/30 05:42:13;;;;;;;15.13;5.70;;;;;;;;;;5016251;28;20157;-63
2023/08/30 05:44:42;;;;;;;11.65;5.15;;;;;;;;;;5014148;28;20059;-63
2023/08/30 05:47:14;;;;;;;14.90;5.18;;;;;;;;;;5017876;28;20084;-63
2023/08/30 05:49:41;;;;;;;12.43;5.32;;;;;;;;;;5018330;28;20073;-63
2023/08/30 05:52:08;;;;;;;11.93;5.60;;;;;;;;;;5017730;28;20064;-61
2023/08/30 05:54:38;;;;;;;10.60;5.05;;;;;;;;;;5000957;28;20057;-61
2023/08/30 05:57:05;;;;;;;9.48;5.03;;;;;;;;;;5010872;28;20088;-61
2023/08/30 05:59:31;;;;;;;11.82;5.38;;;;;;;;;;5018764;28;20049;-61
2023/08/30 06:02:00;;;;;;;11.30;5.63;;;;;;;;;;5020503;28;20061;-65
2023/08/30 06:04:26;;;;;;;13.95;6.22;;;;;;;;;;4973964;28;20046;-63
2023/08/30 06:06:53;;;;;;;12.65;6.13;;;;;;;;;;5018542;28;20064;-64
2023/08/30 06:09:20;;;;;;;11.35;5.20;;;;;;;;;;5016615;28;20060;-61
2023/08/30 06:11:46;;;;;;;16.25;5.35;;;;;;;;;;5016121;28;20091;-62
2023/08/30 06:14:13;;;;;;;17.10;5.72;;;;;;;;;;5005117;28;20087;-63
2023/08/30 06:16:44;;;;;;;16.27;5.60;;;;;;;;;;5009093;28;20085;-63
2023/08/30 06:19:12;;;;;;;12.40;6.00;;;;;;;;;;5031258;28;20146;-62
2023/08/30 06:21:39;;;;;;;13.85;5.95;;;;;;;;;;5017827;28;20055;-60
2023/08/30 06:24:07;;;;;;;12.52;6.25;;;;;;;;;;5007998;28;20097;-62
2023/08/30 06:26:34;;;;;;;13.70;6.32;;;;;;;;;;5021749;28;22681;-62
2023/08/30 06:29:01;;;;;;;13.75;6.05;;;;;;;;;;5012036;28;20069;-62
2023/08/30 06:31:28;;;;;;;13.30;5.50;;;;;;;;;;5018923;28;20065;-62
2023/08/30 06:33:55;;;;;;;14.60;5.65;;;;;;;;;;4973031;28;20131;-63
2023/08/30 06:36:23;;;;;;;12.55;5.45;;;;;;;;;;4995274;28;20053;-62
2023/08/30 06:38:50;;;;;;;10.50;5.60;;;;;;;;;;5010690;28;20070;-61
2023/08/30 06:41:17;;;;;;;15.05;5.68;;;;;;;;;;5017165;28;20080;-63
2023/08/30 06:43:44;;;;;;;11.95;5.80;;;;;;;;;;5015955;28;20080;-62
2023/08/30 06:46:10;;;;;;;13.38;5.78;;;;;;;;;;4994093;28;20055;-62
2023/08/30 06:48:37;;;;;;;10.65;5.30;;;;;;;;;;5014006;28;20143;-61
2023/08/30 06:51:04;;;;;;;14.15;5.78;;;;;;;;;;5018485;28;20064;-61
2023/08/30 06:53:32;;;;;;;10.07;5.32;;;;;;;;;;5018350;28;20080;-61
2023/08/30 06:55:59;;;;;;;10.10;5.35;;;;;;;;;;4992235;28;20107;-61
2023/08/30 06:58:27;;;;;;;12.52;5.95;;;;;;;;;;5007838;28;20261;-63
2023/08/30 07:00:54;;;;;;;15.45;5.90;;;;;;;;;;5017099;28;20069;-62
2023/08/30 07:03:20;;;;;;;14.00;4.88;;;;;;;;;;5016001;28;20053;-63
2023/08/30 07:05:48;;;;;;;13.57;5.68;;;;;;;;;;5012418;28;20052;-62
2023/08/30 07:08:15;;;;;;;11.48;5.13;;;;;;;;;;5016058;28;20045;-62
2023/08/30 07:10:44;;;;;;;9.02;4.88;;;;;;;;;;5017523;28;20060;-60
2023/08/30 07:13:11;;;;;;;11.82;5.72;;;;;;;;;;5014947;28;20049;-61
2023/08/30 07:15:39;;;;;;;13.15;5.38;;;;;;;;;;5026252;28;20119;-61
2023/08/30 07:18:09;;;;;;;14.40;5.77;;;;;;;;;;5003598;28;20099;-61
2023/08/30 07:20:37;;;;;;;13.27;5.80;;;;;;;;;;5009583;28;20068;-61
2023/08/30 07:23:04;;;;;;;12.75;5.43;;;;;;;;;;5017613;28;20081;-61
2023/08/30 07:25:33;;;;;;;10.40;5.05;;;;;;;;;;5017371;28;20062;-62
2023/08/30 07:28:01;;;;;;;11.63;5.28;;;;;;;;;;5021224;28;20128;-62
2023/08/30 07:30:28;;;;;;;10.63;4.90;;;;;;;;;;5018096;28;20398;-61
2023/08/30 07:32:55;;;;;;;10.02;5.18;;;;;;;;;;5020058;28;20081;-61
2023/08/30 07:35:22;;;;;;;15.68;5.50;;;;;;;;;;5007315;28;20049;-61
2023/08/30 07:37:54;;;;;;;11.07;5.55;;;;;;;;;;5019935;28;20053;-61
2023/08/30 07:40:24;;;;;;;11.98;6.53;;;;;;;;;;5013086;28;20049;-62
2023/08/30 07:42:50;;;;;;;14.90;6.28;;;;;;;;;;5020796;28;20053;-61
2023/08/30 07:45:19;;;;;;;11.98;5.53;;;;;;;;;;5015976;28;20088;-61
2023/08/30 07:47:45;;;;;;;11.77;5.97;;;;;;;;;;5020362;28;20053;-62
2023/08/30 07:50:12;;;;;;;10.77;5.53;;;;;;;;;;5011550;28;20159;-62
2023/08/30 07:52:41;;;;;;;13.98;5.68;;;;;;;;;;5020445;28;21013;-62
2023/08/30 07:55:10;;;;;;;12.95;5.35;;;;;;;;;;5010078;28;20052;-61
2023/08/30 07:57:37;;;;;;;11.38;5.85;;;;;;;;;;5025557;28;20091;-62
2023/08/30 08:00:07;;;;;;;10.50;4.90;;;;;;;;;;5018598;28;20068;-61
2023/08/30 08:02:36;;;;;;;10.18;4.53;;;;;;;;;;5015688;28;21554;-61
2023/08/30 08:05:03;;;;;;;14.77;4.47;;;;;;;;;;5014398;28;20064;-61
2023/08/30 08:07:29;;;;;;;11.77;4.63;;;;;;;;;;5021471;28;20068;-61
2023/08/30 08:09:57;;;;;;;9.48;4.57;;;;;;;;;;5019415;28;20050;-61
2023/08/30 08:12:24;;;;;;;11.40;4.87;;;;;;;;;;5012398;28;20042;-62
2023/08/30 08:14:51;;;;;;;8.90;4.55;;;;;;;;;;5014433;28;20353;-61
2023/08/30 08:17:18;;;;;;;9.95;4.55;;;;;;;;;;5016724;28;20065;-61
2023/08/30 08:19:46;;;;;;;8.23;4.00;;;;;;;;;;5032988;28;20091;-61
2023/08/30 08:22:13;;;;;;;9.25;4.30;;;;;;;;;;5018009;28;20104;-61
2023/08/30 08:24:40;;;;;;;10.52;4.30;;;;;;;;;;5004095;28;20049;-61
2023/08/30 08:27:06;;;;;;;12.32;4.10;;;;;;;;;;5010636;28;20107;-61
2023/08/30 08:29:33;;;;;;;11.50;4.28;;;;;;;;;;5016331;28;20072;-62
2023/08/30 08:32:00;;;;;;;9.40;3.92;;;;;;;;;;5016450;28;20057;-61
2023/08/30 08:34:26;;;;;;;11.93;3.80;;;;;;;;;;5005165;28;20065;-62
2023/08/30 08:36:54;;;;;;;8.73;3.85;;;;;;;;;;5020181;28;20057;-62
2023/08/30 08:39:21;;;;;;;8.85;4.07;;;;;;;;;;5018510;28;20149;-62
2023/08/30 08:41:48;;;;;;;10.95;4.07;;;;;;;;;;5019556;28;20054;-61
2023/08/30 08:44:15;;;;;;;8.65;4.25;;;;;;;;;;5012722;28;20046;-60
2023/08/30 08:46:42;;;;;;;8.43;3.92;;;;;;;;;;5014964;28;20229;-63
2023/08/30 08:49:11;;;;;;;10.60;4.68;;;;;;;;;;5022481;28;20049;-62
2023/08/30 08:51:38;;;;;;;10.77;4.75;;;;;;;;;;5021863;28;20144;-60
2023/08/30 08:54:09;;;;;;;12.23;4.00;;;;;;;;;;5015931;28;20335;-61
2023/08/30 08:56:39;;;;;;;10.50;5.03;;;;;;;;;;5001407;28;20067;-61
2023/08/30 08:59:07;;;;;;;10.10;4.85;;;;;;;;;;5018625;28;20075;-61
2023/08/30 09:01:35;;;;;;;12.13;5.05;;;;;;;;;;5021287;28;20065;-60
2023/08/30 09:04:08;;;;;;;9.80;4.60;;;;;;;;;;5000183;28;20063;-61
2023/08/30 09:06:35;;;;;;;12.85;4.68;;;;;;;;;;5015246;28;20053;-61
2023/08/30 09:09:04;;;;;;;11.25;4.57;;;;;;;;;;5020264;28;20062;-61
2023/08/30 09:11:33;;;;;;;12.65;4.47;;;;;;;;;;5018952;28;20057;-61
2023/08/30 09:13:59;;;;;;;;;;;;;;;;;;5012494;28;20056;-60
2023/08/30 09:16:26;;;;;;;10.10;4.53;;;;;;;;;;4995620;28;20115;-61
2023/08/30 09:19:00;;;;;;;11.20;5.55;;;;;;;;;;5010551;28;20060;-61
2023/08/30 09:21:27;;;;;;;11.50;6.25;;;;;;;;;;5023298;28;20057;-61
2023/08/30 09:24:01;;;;;;;12.95;5.70;;;;;;;;;;5016555;28;20049;-61
2023/08/30 09:26:29;;;;;;;9.65;4.45;;;;;;;;;;4988645;28;20108;-61
2023/08/30 09:29:03;;;;;;;7.68;3.72;;;;;;;;;;4986546;28;20057;-61
2023/08/30 09:31:34;;;;;;;10.55;3.55;;;;;;;;;;4991027;28;20177;-61
2023/08/30 09:34:01;;;;;;;7.32;3.45;;;;;;;;;;4998251;28;20132;-61
2023/08/30 09:36:33;;;;;;;5.38;2.97;;;;;;;;;;5006188;28;20049;-62
2023/08/30 09:39:00;;;;;;;7.05;3.20;;;;;;;;;;5017585;28;20045;-61
2023/08/30 09:41:27;;;;;;;8.20;3.35;;;;;;;;;;5020069;28;20095;-59
2023/08/30 09:43:54;;;;;;;9.07;3.30;;;;;;;;;;5018615;28;20054;-61
2023/08/30 09:46:23;;;;;;;6.93;3.33;;;;;;;;;;5007808;28;20053;-60
2023/08/30 09:48:50;;;;;;;8.82;3.30;;;;;;;;;;5009410;28;20073;-60
2023/08/30 09:51:19;;;;;;;8.05;3.50;;;;;;;;;;5019102;28;20052;-60
2023/08/30 09:53:49;;;;;;;5.70;3.17;;;;;;;;;;5022285;28;20103;-61
2023/08/30 09:56:17;;;;;;;7.15;3.20;;;;;;;;;;4987302;28;20163;-61
2023/08/30 09:58:45;;;;;;;7.87;3.63;;;;;;;;;;5017055;28;20053;-60
2023/08/30 10:01:12;;;;;;;6.73;3.17;;;;;;;;;;5004403;28;20072;-60
2023/08/30 10:03:42;;;;;;;8.30;3.65;;;;;;;;;;4999582;28;20061;-60
2023/08/30 10:06:09;;;;;;;5.88;3.53;;;;;;;;;;4992839;28;20069;-60
2023/08/30 10:08:36;;;;;;;9.70;4.07;;;;;;;;;;4993073;28;20054;-59
2023/08/30 10:11:03;;;;;;;11.27;4.47;;;;;;;;;;4998000;28;20076;-60
2023/08/30 10:13:31;;;;;;;8.48;4.70;;;;;;;;;;4996957;28;20061;-63
2023/08/30 10:16:03;;;;;;;8.90;4.60;;;;;;;;;;4983087;28;20072;-60
2023/08/30 10:18:32;;;;;;;9.45;4.38;;;;;;;;;;4990738;28;20076;-62
2023/08/30 10:21:03;;;;;;;8.65;4.50;;;;;;;;;;4997119;28;20214;-61
2023/08/30 10:23:33;;;;;;;10.50;5.07;;;;;;;;;;4996733;28;20049;-61
2023/08/30 10:26:03;;;;;;;9.93;5.03;;;;;;;;;;4995728;28;20094;-61
2023/08/30 10:28:31;;;;;;;12.38;5.65;;;;;;;;;;4990397;28;20050;-61
2023/08/30 10:30:58;;;;;;;9.20;5.15;;;;;;;;;;4998580;28;20080;-61
2023/08/30 10:33:25;;;;;;;15.23;5.45;;;;;;;;;;4998491;28;20057;-61
2023/08/30 10:35:55;;;;;;;11.82;5.80;;;;;;;;;;4986715;28;20058;-61
2023/08/30 10:38:27;;;;;;;10.88;5.22;;;;;;;;;;4992036;28;20125;-60
2023/08/30 10:40:54;;;;;;;9.38;5.38;;;;;;;;;;4999012;28;20050;-60
2023/08/30 10:43:30;;;;;;;11.82;6.07;;;;;;;;;;4999103;28;20049;-61
2023/08/30 10:46:02;;;;;;;12.52;5.70;;;;;;;;;;4995290;28;20124;-63
2023/08/30 10:48:35;;;;;;;11.45;6.47;;;;;;;;;;4990053;28;20069;-61
2023/08/30 10:51:04;;;;;;;10.90;5.32;;;;;;;;;;4997375;28;20081;-61
2023/08/30 10:53:32;;;;;;;10.70;6.05;;;;;;;;;;4997025;28;20057;-61
2023/08/30 10:56:10;;;;;;;12.45;5.40;;;;;;;;;;4978313;28;20057;-61
2023/08/30 10:58:43;;;;;;;10.88;5.70;;;;;;;;;;4994334;28;20057;-60
2023/08/30 11:01:12;;;;;;;9.43;5.00;;;;;;;;;;5002837;28;20081;-61
2023/08/30 11:03:39;;;;;;;9.40;5.03;;;;;;;;;;5016940;28;20068;-62
2023/08/30 11:06:14;;;;;;;8.38;5.10;;;;;;;;;;5016492;28;20065;-59
2023/08/30 11:08:42;;;;;;;6.63;4.00;;;;;;;;;;5015031;28;20049;-61
2023/08/30 11:11:10;;;;;;;;;;;;;;;;;;5018166;28;20068;-62
2023/08/30 11:13:37;;;;;;;9.90;3.47;;;;;;;;;;5017402;28;19936;-63
2023/08/30 11:16:05;;;;;;;5.47;2.97;;;;;;;;;;5003257;28;20053;-64
2023/08/30 11:18:37;;;;;;;;;;;;;;;;;;5011739;28;20049;-62
2023/08/30 11:21:04;;;;;;;7.80;2.90;;;;;;;;;;5017634;28;19951;-61
2023/08/30 11:23:31;;;;;;;7.20;3.05;;;;;;;;;;5015506;28;20073;-61
2023/08/30 11:25:59;;;;;;;6.05;2.85;;;;;;;;;;4963398;28;20063;-62
2023/08/30 11:28:26;;;;;;;8.52;3.22;;;;;;;;;;5010169;28;20060;-62
2023/08/30 11:30:54;;;;;;;5.80;3.13;;;;;;;;;;5017247;28;20093;-62
2023/08/30 11:33:21;;;;;;;6.18;3.00;;;;;;;;;;5018362;28;20123;-60
2023/08/30 11:35:52;;;;;;;5.95;2.83;;;;;;;;;;5005159;28;20064;-63
2023/08/30 11:38:20;;;;;;;6.63;2.67;;;;;;;;;;5009988;28;20061;-62
2023/08/30 11:40:50;;;;;;;10.27;2.85;;;;;;;;;;5016293;28;20061;-61
2023/08/30 11:43:19;;;;;;;12.02;2.92;;;;;;;;;;5017190;28;20104;-61
2023/08/30 11:45:45;;;;;;;;;;;;;;;;;;4991239;28;20103;-63
2023/08/30 11:48:12;;;;;;;8.20;2.70;;;;;;;;;;5010566;28;20079;-62
2023/08/30 11:50:39;;;;;;;6.32;2.38;;;;;;;;;;5012317;28;20084;-62
2023/08/30 11:53:07;;;;;;;10.65;2.47;;;;;;;;;;5017810;28;20053;-61
2023/08/30 11:55:34;;;;;;;5.20;2.17;;;;;;;;;;4992063;28;20093;-61
2023/08/30 11:58:03;;;;;;;5.47;1.90;;;;;;;;;;5039618;28;20149;-62
2023/08/30 12:00:34;;;;;;;8.85;2.05;;;;;;;;;;4998297;28;20065;-64
2023/08/30 12:03:01;;;;;;;5.40;1.73;;;;;;;;;;5018003;28;20061;-61
2023/08/30 12:05:33;;;;;;;4.53;1.38;;;;;;;;;;5009761;28;20146;-61
2023/08/30 12:08:03;;;;;;;6.13;1.70;;;;;;;;;;5018261;28;20115;-61
2023/08/30 12:10:31;;;;;;;7.18;1.80;;;;;;;;;;5011276;28;20085;-62
2023/08/30 12:12:58;;;;;;;5.10;1.52;;;;;;;;;;5022297;28;20115;-63
2023/08/30 12:15:27;;;;;;;4.72;1.77;;;;;;;;;;4992847;28;20053;-61
2023/08/30 12:17:56;;;;;;;5.25;1.80;;;;;;;;;;5016522;28;20046;-61
2023/08/30 12:20:23;;;;;;;6.80;1.83;;;;;;;;;;5014500;28;20049;-62
2023/08/30 12:22:51;;;;;;;6.28;2.00;;;;;;;;;;5018829;28;20125;-62
2023/08/30 12:25:19;;;;;;;11.07;2.13;;;;;;;;;;5006473;28;20064;-61
2023/08/30 12:27:46;;;;;;;5.13;1.75;;;;;;;;;;5021002;28;20124;-62
2023/08/30 12:30:23;;;;;;;6.00;1.80;;;;;;;;;;5017088;28;20045;-63
2023/08/30 12:32:50;;;;;;;10.80;2.20;;;;;;;;;;5019615;28;20057;-62
2023/08/30 12:35:18;;;;;;;6.43;1.83;;;;;;;;;;4971544;28;20169;-62
2023/08/30 12:37:45;;;;;;;6.05;1.67;;;;;;;;;;5021941;28;20132;-61
2023/08/30 12:40:13;;;;;;;5.40;2.00;;;;;;;;;;5017765;28;20103;-62
2023/08/30 12:42:40;;;;;;;7.72;1.75;;;;;;;;;;5019795;28;20057;-62
2023/08/30 12:45:10;;;;;;;8.32;1.80;;;;;;;;;;4993571;28;20082;-62
2023/08/30 12:47:36;;;;;;;7.22;1.90;;;;;;;;;;5018820;28;20061;-62
2023/08/30 12:50:03;;;;;;;10.48;1.95;;;;;;;;;;5019382;28;20049;-64
2023/08/30 12:52:31;;;;;;;9.07;1.63;;;;;;;;;;5012685;28;20069;-62
2023/08/30 12:54:58;;;;;;;8.60;1.63;;;;;;;;;;5014041;28;20115;-62
2023/08/30 12:57:26;;;;;;;10.77;2.00;;;;;;;;;;5018479;28;20057;-62
2023/08/30 12:59:52;;;;;;;10.27;1.90;;;;;;;;;;5019806;28;20061;-61
2023/08/30 13:02:19;;;;;;;9.35;2.05;;;;;;;;;;5011589;28;20065;-61
2023/08/30 13:04:48;;;;;;;10.20;1.92;;;;;;;;;;5006206;28;20065;-61
2023/08/30 13:07:15;;;;;;;6.97;1.65;;;;;;;;;;5009969;28;20121;-61
2023/08/30 13:09:47;;;;;;;5.55;1.20;;;;;;;;;;5009484;28;20084;-61
2023/08/30 13:12:14;;;;;;;8.88;1.90;;;;;;;;;;5004494;28;20058;-62
2023/08/30 13:14:41;;;;;;;8.57;1.85;;;;;;;;;;5003956;28;20061;-61
2023/08/30 13:17:08;;;;;;;11.07;1.92;;;;;;;;;;4999625;28;20058;-62
2023/08/30 13:19:34;;;;;;;6.72;1.67;;;;;;;;;;5013913;28;20072;-62
2023/08/30 13:22:03;;;;;;;8.20;1.67;;;;;;;;;;5020234;28;20061;-62
2023/08/30 13:24:32;;;;;;;5.38;1.42;;;;;;;;;;4988023;28;20156;-63
2023/08/30 13:27:00;;;;;;;11.13;1.90;;;;;;;;;;4997840;28;20072;-62
2023/08/30 13:29:27;;;;;;;7.63;1.50;;;;;;;;;;5015049;28;20130;-62
2023/08/30 13:31:54;;;;;;;8.70;1.70;;;;;;;;;;5017242;28;20101;-63
2023/08/30 13:34:23;;;;;;;7.47;1.63;;;;;;;;;;5004839;28;20052;-63
2023/08/30 13:36:49;;;;;;;8.57;1.60;;;;;;;;;;5019022;28;20064;-62
2023/08/30 13:39:17;;;;;;;6.72;1.50;;;;;;;;;;5017646;28;20070;-62
2023/08/30 13:41:46;;;;;;;8.00;1.55;;;;;;;;;;5023311;28;20124;-61
2023/08/30 13:44:15;;;;;;;6.15;1.63;;;;;;;;;;5014070;28;20057;-62
2023/08/30 13:46:42;;;;;;;6.40;1.40;;;;;;;;;;5020419;28;20061;-62
2023/08/30 13:49:09;;;;;;;6.03;1.23;;;;;;;;;;5020752;28;20061;-61
2023/08/30 13:51:36;;;;;;;5.40;1.35;;;;;;;;;;5022862;28;20053;-61
2023/08/30 13:54:03;;;;;;;6.28;1.42;;;;;;;;;;5008515;28;20148;-61
2023/08/30 13:56:32;;;;;;;6.68;1.45;;;;;;;;;;5008173;28;20148;-62
2023/08/30 13:59:01;;;;;;;7.45;1.73;;;;;;;;;;5019167;28;20057;-62
2023/08/30 14:01:34;;;;;;;4.35;1.27;;;;;;;;;;5019147;28;20100;-61
2023/08/30 14:04:04;;;;;;;5.63;1.25;;;;;;;;;;5022496;28;20294;-61
2023/08/30 14:06:32;;;;;;;7.88;1.50;;;;;;;;;;4983339;28;20309;-62
2023/08/30 14:08:59;;;;;;;5.17;1.27;;;;;;;;;;5018770;28;20060;-62
2023/08/30 14:11:25;;;;;;;5.13;1.50;;;;;;;;;;5022213;28;20144;-62
2023/08/30 14:13:52;;;;;;;8.82;1.50;;;;;;;;;;5017187;28;20115;-61
2023/08/30 14:16:19;;;;;;;8.02;1.60;;;;;;;;;;5009236;28;20149;-62
2023/08/30 14:18:47;;;;;;;5.93;1.08;;;;;;;;;;5007576;28;20050;-61
2023/08/30 14:21:14;;;;;;;6.35;1.50;;;;;;;;;;5017195;28;20057;-62
2023/08/30 14:23:40;;;;;;;9.45;1.75;;;;;;;;;;5017697;28;20129;-63
2023/08/30 14:26:12;;;;;;;6.28;1.20;;;;;;;;;;5012272;28;20060;-63
2023/08/30 14:28:40;;;;;;;5.50;1.05;;;;;;;;;;5016411;28;20058;-62
2023/08/30 14:31:09;;;;;;;9.38;1.35;;;;;;;;;;5018684;28;20105;-62
2023/08/30 14:33:36;;;;;;;6.95;1.15;;;;;;;;;;5017672;28;20088;-61
2023/08/30 14:36:10;;;;;;;4.60;1.20;;;;;;;;;;5022155;28;20053;-61
2023/08/30 14:38:40;;;;;;;10.40;1.70;;;;;;;;;;5014204;28;20103;-61
2023/08/30 14:41:07;;;;;;;4.95;1.17;;;;;;;;;;5019255;28;20103;-61
2023/08/30 14:43:34;;;;;;;5.13;1.30;;;;;;;;;;5023004;28;20107;-61